Time;durP1;ratioP1;P1;durP2;ratioP2;P2;SDS_P1;SDS_P2;PMS_P1;PMS_P2;Temp;Humidity;BMP_temperature;BMP_pressure;BME280_temperature;BME280_humidity;BME280_pressure;Samples;Min_cycle;Max_cycle;Signal;HPM_P1;HPM_P2
2022/06/01 00:00:40;;;;;;;5.80;3.75;;;;;;;23.24;40.09;101356.03;5003058;28;20717;-85
2022/06/01 00:03:07;;;;;;;4.30;3.25;;;;;;;23.20;40.11;101350.28;4968990;28;20116;-84
2022/06/01 00:05:33;;;;;;;3.97;3.10;;;;;;;23.17;40.18;101347.19;4984370;28;20057;-84
2022/06/01 00:07:59;;;;;;;4.40;2.90;;;;;;;23.14;39.91;101342.22;4974615;28;20065;-84
2022/06/01 00:10:24;;;;;;;4.35;3.40;;;;;;;23.16;40.11;101345.50;5003568;28;20018;-84
2022/06/01 00:12:50;;;;;;;3.92;2.85;;;;;;;23.09;40.25;101341.97;5006727;28;20053;-83
2022/06/01 00:15:18;;;;;;;4.28;3.05;;;;;;;23.09;39.94;101344.63;4986118;28;20077;-83
2022/06/01 00:17:44;;;;;;;5.60;3.63;;;;;;;23.09;40.15;101344.63;5001345;28;20038;-83
2022/06/01 00:20:10;;;;;;;4.72;3.08;;;;;;;23.09;40.42;101349.94;5003021;28;20045;-82
2022/06/01 00:22:36;;;;;;;7.25;3.40;;;;;;;23.07;40.12;101349.31;4975525;28;20038;-84
2022/06/01 00:25:04;;;;;;;3.80;3.13;;;;;;;22.89;40.29;101315.19;5006159;28;20517;-83
2022/06/01 00:27:30;;;;;;;4.13;3.17;;;;;;;23.05;40.24;101351.31;4988625;28;20038;-84
2022/06/01 00:29:57;;;;;;;4.47;3.25;;;;;;;23.06;40.19;101337.84;5003375;28;20034;-83
2022/06/01 00:32:23;;;;;;;3.95;3.20;;;;;;;22.38;40.30;101237.41;4964632;28;20461;-83
2022/06/01 00:34:48;;;;;;;5.90;3.15;;;;;;;23.04;40.39;101345.19;5004572;28;20049;-83
2022/06/01 00:37:14;;;;;;;5.30;3.83;;;;;;;23.00;40.22;101335.16;5003266;28;20050;-83
2022/06/01 00:39:39;;;;;;;4.28;3.03;;;;;;;22.97;40.32;101333.66;4989869;28;20413;-83
2022/06/01 00:42:10;;;;;;;7.30;3.20;;;;;;;22.83;40.37;101315.97;4985016;28;21308;-83
2022/06/01 00:44:36;;;;;;;4.25;3.08;;;;;;;22.86;40.49;101319.06;4986058;28;20057;-83
2022/06/01 00:47:01;;;;;;;4.10;3.25;;;;;;;22.97;40.73;101335.50;4999639;28;20042;-83
2022/06/01 00:49:28;;;;;;;4.72;3.10;;;;;;;22.84;40.74;101320.25;4999677;28;20052;-83
2022/06/01 00:51:54;;;;;;;4.60;2.88;;;;;;;22.83;40.61;101315.97;5004431;28;20033;-83
2022/06/01 00:54:21;;;;;;;4.03;3.05;;;;;;;22.86;40.75;101329.69;4983859;28;20408;-83
2022/06/01 00:56:53;;;;;;;4.72;3.20;;;;;;;22.91;40.55;101335.25;5003692;28;20052;-83
2022/06/01 00:59:22;;;;;;;3.92;2.90;;;;;;;22.88;40.43;101330.31;5001539;28;20176;-83
2022/06/01 01:01:49;;;;;;;4.72;3.15;;;;;;;22.86;40.51;101329.69;5002173;28;20419;-83
2022/06/01 01:04:14;;;;;;;3.58;2.65;;;;;;;22.84;40.76;101313.13;5001620;28;20048;-83
2022/06/01 01:06:44;;;;;;;4.60;3.05;;;;;;;22.76;40.78;101315.84;5003503;28;20072;-83
2022/06/01 01:09:10;;;;;;;;;;;;;;;22.88;40.73;101334.81;4987953;28;20030;-83
2022/06/01 01:11:41;;;;;;;5.55;3.47;;;;;;;22.65;40.73;101294.28;5000036;28;19921;-83
2022/06/01 01:14:06;;;;;;;4.28;2.95;;;;;;;22.85;40.62;101325.38;5000633;28;20068;-83
2022/06/01 01:16:32;;;;;;;3.55;2.83;;;;;;;22.77;40.48;101311.34;5000085;28;20112;-83
2022/06/01 01:18:58;;;;;;;4.57;3.20;;;;;;;;;;4950962;28;20046;-84
2022/06/01 01:21:44;;;;;;;7.28;3.58;;;;;;;22.83;40.81;101326.59;4984161;28;20152;-83
2022/06/01 01:24:25;;;;;;;4.72;3.20;;;;;;;22.84;40.82;101329.06;4987847;28;20076;-85
2022/06/01 01:26:52;;;;;;;3.85;2.72;;;;;;;22.64;40.75;101290.00;5001605;28;20042;-84
2022/06/01 01:29:38;;;;;;;4.15;3.00;;;;;;;22.72;40.77;101305.78;4999860;28;20061;-84
2022/06/01 01:32:07;;;;;;;5.43;3.38;;;;;;;22.61;40.81;101289.31;4999008;28;20533;-84
2022/06/01 01:34:33;;;;;;;5.57;3.10;;;;;;;22.77;40.78;101312.16;4999988;28;20778;-84
2022/06/01 01:37:04;;;;;;;3.90;3.00;;;;;;;22.76;40.79;101313.19;4997631;28;20051;-84
2022/06/01 01:39:34;;;;;;;4.00;2.97;;;;;;;22.41;40.85;101258.25;4989208;28;20096;-84
2022/06/01 01:42:00;;;;;;;4.22;3.33;;;;;;;22.70;40.88;101305.97;4999984;28;20049;-83
2022/06/01 01:44:34;;;;;;;5.43;3.45;;;;;;;22.66;41.09;101285.31;4993813;28;20242;-84
2022/06/01 01:47:00;;;;;;;3.92;3.05;;;;;;;22.62;41.10;101282.19;4980247;28;20065;-83
2022/06/01 01:49:32;;;;;;;4.30;3.10;;;;;;;22.51;41.18;101272.06;4998874;28;20523;-83
2022/06/01 01:52:02;;;;;;;4.35;3.40;;;;;;;22.66;41.22;101299.41;4996079;28;20041;-83
2022/06/01 01:54:52;;;;;;;4.95;3.20;;;;;;;22.71;41.23;101304.16;4980752;28;20033;-83
2022/06/01 01:57:34;;;;;;;;;;;;;;;22.71;40.98;101296.19;5000518;28;20041;-83
2022/06/01 02:00:06;;;;;;;4.22;2.90;;;;;;;22.70;41.05;101303.31;4998911;28;20052;-83
2022/06/01 02:02:42;;;;;;;4.18;3.30;;;;;;;22.71;41.03;101298.84;4997055;28;20109;-83
2022/06/01 02:08:24;;;;;;;5.72;3.03;;;;;;;22.70;40.93;101303.31;4999575;28;20040;-83
2022/06/01 02:13:37;;;;;;;4.75;3.10;;;;;;;22.69;41.29;101292.91;4998584;28;20530;-83
2022/06/01 02:16:03;;;;;;;8.20;3.17;;;;;;;22.68;41.36;101299.22;4997271;28;20050;-83
2022/06/01 02:18:40;;;;;;;6.90;3.22;;;;;;;22.61;41.33;101291.16;5003800;28;20038;-83
2022/06/01 02:21:13;;;;;;;4.30;3.13;;;;;;;22.06;41.35;101206.81;5000586;28;20046;-83
2022/06/01 02:23:39;;;;;;;3.92;3.15;;;;;;;22.64;41.18;101301.44;4986278;28;20211;-83
2022/06/01 02:26:05;;;;;;;4.22;2.83;;;;;;;22.66;41.11;101295.94;4964564;28;20058;-83
2022/06/01 02:28:32;;;;;;;4.70;2.85;;;;;;;22.64;41.07;101300.59;5000640;28;20046;-83
2022/06/01 02:30:59;;;;;;;4.75;3.40;;;;;;;22.50;41.29;101281.03;5000792;28;20034;-84
2022/06/01 02:33:31;;;;;;;4.78;3.20;;;;;;;22.63;41.44;101294.47;5003707;28;20068;-84
2022/06/01 02:35:59;;;;;;;4.32;2.90;;;;;;;22.63;41.56;101301.63;4999336;28;20539;-82
2022/06/01 02:38:30;;;;;;;4.00;3.20;;;;;;;22.59;41.25;101301.97;5002670;28;20029;-81
2022/06/01 02:40:56;;;;;;;5.28;3.40;;;;;;;22.45;41.19;101281.59;4987951;28;20045;-81
2022/06/01 02:43:22;;;;;;;4.40;2.85;;;;;;;22.39;41.33;101268.25;5003733;28;20045;-82
2022/06/01 02:45:47;;;;;;;4.72;3.22;;;;;;;22.60;41.54;101295.66;4998381;28;21251;-81
2022/06/01 02:48:13;;;;;;;4.38;3.10;;;;;;;22.59;41.18;101301.13;5001232;28;20048;-82
2022/06/01 02:50:38;;;;;;;4.25;3.45;;;;;;;22.44;41.41;101277.31;5002649;28;20033;-81
2022/06/01 02:53:05;;;;;;;4.47;3.30;;;;;;;22.58;41.14;101304.81;4997926;28;20042;-81
2022/06/01 02:55:31;;;;;;;4.38;3.20;;;;;;;22.47;41.29;101292.84;4987846;28;20042;-81
2022/06/01 02:57:58;;;;;;;3.97;3.20;;;;;;;22.58;41.44;101307.47;4997841;28;20124;-81
2022/06/01 03:00:35;;;;;;;6.40;3.45;;;;;;;22.57;41.46;101311.13;4997675;28;20050;-81
2022/06/01 03:03:02;;;;;;;4.05;3.05;;;;;;;22.47;41.20;101290.19;5000319;28;20080;-81
2022/06/01 03:05:32;;;;;;;5.38;3.50;;;;;;;22.41;41.58;101284.78;4999672;28;20081;-81
2022/06/01 03:07:57;;;;;;;4.00;3.10;;;;;;;22.55;41.38;101303.34;5002259;28;20121;-81
2022/06/01 03:10:24;;;;;;;4.68;3.30;;;;;;;22.46;41.47;101290.38;4989255;28;20037;-81
2022/06/01 03:12:50;;;;;;;4.05;3.28;;;;;;;22.53;41.32;101308.03;5003806;28;20097;-81
2022/06/01 03:15:17;;;;;;;5.40;3.20;;;;;;;22.53;41.65;101301.91;5003213;28;20730;-81
2022/06/01 03:17:44;;;;;;;5.65;3.08;;;;;;;22.52;41.65;101310.88;5002098;28;20037;-81
2022/06/01 03:20:12;;;;;;;5.70;3.35;;;;;;;22.52;41.35;101306.38;5009579;28;20046;-81
2022/06/01 03:22:40;;;;;;;4.88;2.90;;;;;;;22.29;41.60;101271.19;5005404;28;20034;-81
2022/06/01 03:25:13;;;;;;;3.55;3.03;;;;;;;22.26;41.49;101266.25;4994187;28;20069;-82
2022/06/01 03:27:39;;;;;;;5.50;3.03;;;;;;;22.51;41.47;101310.03;5006782;28;20033;-81
2022/06/01 03:30:06;;;;;;;4.45;2.90;;;;;;;22.51;41.52;101311.88;5005805;28;20057;-81
2022/06/01 03:32:32;;;;;;;5.40;3.17;;;;;;;22.49;41.32;101316.56;5006617;28;20116;-81
2022/06/01 03:34:58;;;;;;;4.85;3.25;;;;;;;22.44;41.52;101303.00;5007291;28;20129;-81
2022/06/01 03:37:23;;;;;;;4.05;3.10;;;;;;;22.49;41.49;101309.41;5004662;28;20045;-81
2022/06/01 03:39:49;;;;;;;5.35;3.30;;;;;;;22.46;41.41;101309.78;4997762;28;20049;-81
2022/06/01 03:42:14;;;;;;;5.72;3.08;;;;;;;22.37;41.71;101304.75;5006866;28;20041;-81
2022/06/01 03:47:28;;;;;;;3.97;3.30;;;;;;;22.42;41.39;101307.66;4976393;28;20050;-81
2022/06/01 03:49:54;;;;;;;3.85;3.20;;;;;;;22.48;41.42;101313.06;4990751;28;20026;-81
2022/06/01 03:52:20;;;;;;;4.15;3.30;;;;;;;22.46;41.37;101320.41;5001645;28;20045;-81
2022/06/01 03:54:45;;;;;;;5.05;3.20;;;;;;;22.46;41.41;101328.38;4991485;28;20392;-81
2022/06/01 03:57:12;;;;;;;3.92;3.17;;;;;;;22.29;41.23;101298.56;5003002;28;20108;-80
2022/06/01 03:59:38;;;;;;;3.67;3.03;;;;;;;22.33;41.49;101311.44;4998210;28;20721;-80
2022/06/01 04:02:06;;;;;;;5.75;3.42;;;;;;;22.46;41.52;101338.16;5000268;28;20077;-82
2022/06/01 04:04:32;;;;;;;4.68;3.30;;;;;;;22.40;41.51;101326.44;4999738;28;20049;-82
2022/06/01 04:06:58;;;;;;;4.78;3.40;;;;;;;22.27;41.58;101310.38;5002719;28;20053;-82
2022/06/01 04:09:24;;;;;;;5.38;3.30;;;;;;;22.39;41.39;101323.97;4980424;28;20026;-81
2022/06/01 04:11:51;;;;;;;3.92;3.13;;;;;;;22.28;41.60;101314.66;5000300;28;20264;-79
2022/06/01 04:14:21;;;;;;;4.30;3.10;;;;;;;22.42;41.46;101332.38;4983838;28;20054;-80
2022/06/01 04:16:47;;;;;;;6.70;3.37;;;;;;;22.21;41.67;101309.25;5002319;28;20691;-79
2022/06/01 04:19:13;;;;;;;4.07;3.33;;;;;;;22.35;41.51;101326.16;4983621;28;20505;-80
2022/06/01 04:21:40;;;;;;;4.78;3.20;;;;;;;22.43;41.51;101338.50;4969550;28;20036;-79
2022/06/01 04:24:12;;;;;;;4.47;3.45;;;;;;;22.20;41.78;101301.47;5000910;28;20042;-79
2022/06/01 04:26:38;;;;;;;3.97;3.58;;;;;;;22.43;41.57;101339.31;5002946;28;20045;-80
2022/06/01 04:29:04;;;;;;;3.65;3.20;;;;;;;22.44;41.82;101332.19;5004816;28;20039;-79
2022/06/01 04:31:30;;;;;;;4.28;3.20;;;;;;;22.44;41.51;101333.03;4987120;28;20117;-80
2022/06/01 04:33:56;;;;;;;3.72;3.33;;;;;;;22.42;41.63;101327.06;4999134;28;20036;-79
2022/06/01 04:36:21;;;;;;;4.72;3.20;;;;;;;22.29;41.59;101311.00;5007046;28;20801;-81
2022/06/01 04:38:47;;;;;;;5.65;3.60;;;;;;;22.44;41.58;101334.84;5003114;28;20065;-81
2022/06/01 04:41:13;;;;;;;4.63;3.10;;;;;;;22.44;41.85;101334.84;4994721;28;20046;-80
2022/06/01 04:43:38;;;;;;;4.25;3.22;;;;;;;22.41;41.70;101327.25;5004187;28;20042;-80
2022/06/01 04:46:04;;;;;;;4.50;3.30;;;;;;;22.43;41.51;101328.72;4999772;28;20104;-80
2022/06/01 04:48:29;;;;;;;3.97;3.17;;;;;;;22.43;41.66;101317.28;5004080;28;20038;-80
2022/06/01 04:50:57;;;;;;;5.32;3.55;;;;;;;22.41;41.52;101332.56;5004096;28;20046;-80
2022/06/01 04:53:24;;;;;;;4.30;3.47;;;;;;;22.35;41.71;101314.72;5002484;28;20055;-80
2022/06/01 04:55:49;;;;;;;3.80;3.25;;;;;;;22.37;41.67;101318.84;4990868;28;20113;-80
2022/06/01 04:58:15;;;;;;;3.63;3.17;;;;;;;22.29;41.80;101308.34;5000019;28;20519;-79
2022/06/01 05:00:43;;;;;;;3.90;3.20;;;;;;;22.38;41.96;101327.63;5001292;28;20030;-79
2022/06/01 05:03:10;;;;;;;6.00;3.72;;;;;;;22.41;41.92;101328.06;5002324;28;20034;-80
2022/06/01 05:05:39;;;;;;;4.63;3.60;;;;;;;22.38;41.83;101336.41;4998554;28;20440;-79
2022/06/01 05:08:05;;;;;;;5.78;3.53;;;;;;;22.22;41.66;101302.09;5000750;28;20377;-79
2022/06/01 05:10:32;;;;;;;4.00;3.08;;;;;;;22.40;41.93;101333.56;4993154;28;20026;-80
2022/06/01 05:12:57;;;;;;;3.67;3.03;;;;;;;22.40;41.54;101334.38;4985417;28;21165;-79
2022/06/01 05:15:23;;;;;;;4.97;3.60;;;;;;;22.33;41.55;101314.09;4999970;28;20042;-80
2022/06/01 05:17:48;;;;;;;5.47;3.40;;;;;;;22.26;41.93;101314.84;4964148;28;20048;-80
2022/06/01 05:20:14;;;;;;;5.32;3.50;;;;;;;22.38;42.04;101336.41;4986850;28;20484;-80
2022/06/01 05:22:41;;;;;;;5.10;3.42;;;;;;;22.19;41.78;101305.13;5003222;28;20577;-80
2022/06/01 05:25:08;;;;;;;4.75;3.28;;;;;;;22.38;41.84;101335.59;4993130;28;21047;-80
2022/06/01 05:27:33;;;;;;;5.22;3.22;;;;;;;22.40;41.92;101338.88;4998764;28;20654;-80
2022/06/01 05:30:00;;;;;;;4.30;3.25;;;;;;;22.39;42.12;101335.41;5003714;28;20072;-80
2022/06/01 05:32:25;;;;;;;5.10;3.50;;;;;;;22.20;41.87;101301.47;5003293;28;20061;-80
2022/06/01 05:34:50;;;;;;;4.00;3.22;;;;;;;22.32;41.68;101321.25;4999217;28;20045;-80
2022/06/01 05:37:16;;;;;;;5.05;3.25;;;;;;;22.41;41.84;101337.88;4999717;28;20044;-81
2022/06/01 05:39:41;;;;;;;5.70;3.42;;;;;;;22.11;41.79;101289.31;5002698;28;20046;-79
2022/06/01 05:42:08;;;;;;;4.43;3.58;;;;;;;22.39;41.54;101334.56;4990117;28;20064;-80
2022/06/01 05:44:33;;;;;;;5.47;3.95;;;;;;;22.41;41.90;101332.56;5003246;28;20052;-80
2022/06/01 05:47:01;;;;;;;5.80;3.30;;;;;;;22.41;41.60;101336.03;4998953;28;20046;-82
2022/06/01 05:49:27;;;;;;;3.75;3.13;;;;;;;22.41;41.59;101335.22;5001239;28;20124;-81
2022/06/01 05:51:53;;;;;;;3.75;3.33;;;;;;;22.39;42.07;101339.88;5000840;28;20448;-81
2022/06/01 05:54:19;;;;;;;4.68;3.40;;;;;;;22.21;41.95;101311.91;4996434;28;20377;-84
2022/06/01 05:56:45;;;;;;;5.45;3.38;;;;;;;22.38;41.71;101339.06;4990639;28;20040;-81
2022/06/01 05:59:11;;;;;;;5.03;3.55;;;;;;;22.38;41.72;101333.75;4998833;28;20060;-81
2022/06/01 06:01:37;;;;;;;5.53;3.63;;;;;;;22.40;41.92;101337.03;5000140;28;20854;-83
2022/06/01 06:04:03;;;;;;;3.45;3.10;;;;;;;22.38;41.79;101341.72;5002798;28;20108;-80
2022/06/01 06:06:29;;;;;;;4.22;3.42;;;;;;;22.40;41.76;101345.00;5002314;28;20516;-84
2022/06/01 06:08:56;;;;;;;5.95;3.42;;;;;;;22.39;41.90;101346.00;4995686;28;20033;-83
2022/06/01 06:11:27;;;;;;;5.90;4.00;;;;;;;22.38;41.78;101346.19;4989437;28;20129;-83
2022/06/01 06:13:52;;;;;;;5.78;3.83;;;;;;;22.39;41.83;101342.53;5000082;28;20067;-82
2022/06/01 06:16:18;;;;;;;6.53;3.58;;;;;;;22.41;41.68;101346.66;4964463;28;20087;-82
2022/06/01 06:18:44;;;;;;;4.30;3.25;;;;;;;22.42;41.86;101344.81;4997928;28;20042;-82
2022/06/01 06:21:10;;;;;;;4.38;3.47;;;;;;;22.38;41.64;101347.03;5004321;28;20038;-83
2022/06/01 06:23:37;;;;;;;3.92;3.45;;;;;;;22.30;42.19;101334.69;5000813;28;20592;-82
2022/06/01 06:26:03;;;;;;;4.28;3.28;;;;;;;22.42;42.10;101353.59;4977859;28;25932;-79
2022/06/01 06:28:29;;;;;;;6.38;3.65;;;;;;;22.41;41.81;101359.09;4993535;28;20044;-79
2022/06/01 06:30:55;;;;;;;5.85;3.88;;;;;;;22.19;41.80;101329.00;5000594;28;20033;-79
2022/06/01 06:33:21;;;;;;;4.55;3.28;;;;;;;22.40;41.93;101371.53;4980121;28;20038;-79
2022/06/01 06:36:01;;;;;;;4.65;3.40;;;;;;;22.32;41.90;101355.72;5002605;28;20061;-79
2022/06/01 06:38:29;;;;;;;4.90;3.50;;;;;;;22.39;42.26;101377.84;5001499;28;20041;-79
2022/06/01 06:40:56;;;;;;;4.28;3.50;;;;;;;22.40;41.82;101376.03;4998841;28;20037;-79
2022/06/01 06:43:24;;;;;;;5.28;3.42;;;;;;;22.33;42.07;101364.50;4999610;28;20045;-77
2022/06/01 06:45:51;;;;;;;4.22;3.30;;;;;;;22.41;42.19;101381.16;4982867;28;20076;-77
2022/06/01 06:48:17;;;;;;;3.70;3.30;;;;;;;22.40;42.11;101374.19;5001335;28;20786;-79
2022/06/01 06:50:42;;;;;;;5.72;3.50;;;;;;;22.37;42.19;101374.56;5003045;28;20140;-78
2022/06/01 06:53:09;;;;;;;5.10;3.20;;;;;;;22.25;42.35;101382.16;5006316;28;20373;-82
2022/06/01 06:55:35;;;;;;;5.35;3.03;;;;;;;22.12;42.57;101354.63;5006969;28;20073;-80
2022/06/01 06:58:00;;;;;;;4.85;3.05;;;;;;;22.32;42.40;101384.91;4974885;28;20041;-81
2022/06/01 07:00:26;;;;;;;5.10;3.40;;;;;;;22.23;42.57;101376.19;5004883;28;20038;-80
2022/06/01 07:02:52;;;;;;;3.97;2.90;;;;;;;22.21;42.60;101372.09;5004716;28;20080;-79
2022/06/01 07:06:08;;;;;;;3.00;2.70;;;;;;;22.33;42.29;101388.38;4984409;28;20037;-80
2022/06/01 07:08:05;;;;;;;5.15;2.80;;;;;;;22.24;42.49;101375.19;5003062;28;20101;-80
2022/06/01 07:10:31;;;;;;;4.35;3.00;;;;;;;22.33;42.15;101381.25;5005627;28;20073;-79
2022/06/01 07:12:56;;;;;;;4.35;3.10;;;;;;;22.30;42.38;101381.63;4997370;28;20030;-81
2022/06/01 07:15:22;;;;;;;3.95;3.10;;;;;;;22.35;42.51;101391.69;5005450;28;20038;-81
2022/06/01 07:17:47;;;;;;;3.10;2.80;;;;;;;22.36;42.30;101394.16;5008800;28;20041;-79
2022/06/01 07:20:13;;;;;;;4.20;2.85;;;;;;;22.32;42.19;101382.25;5009392;28;20407;-79
2022/06/01 07:22:38;;;;;;;3.90;2.88;;;;;;;22.24;42.20;101361.09;5009388;28;20104;-80
2022/06/01 07:25:04;;;;;;;4.75;3.00;;;;;;;22.28;42.20;101376.50;5002180;28;20042;-79
2022/06/01 07:27:29;;;;;;;3.33;2.80;;;;;;;22.41;42.22;101393.59;4982754;28;20033;-80
2022/06/01 07:29:55;;;;;;;3.08;2.58;;;;;;;22.41;42.02;101391.75;5004075;28;20042;-80
2022/06/01 07:32:21;;;;;;;4.30;2.88;;;;;;;22.42;42.05;101387.28;4999549;28;20050;-80
2022/06/01 07:34:46;;;;;;;3.53;2.75;;;;;;;22.36;42.09;101380.88;5005368;28;20225;-79
2022/06/01 07:45:25;;;;;;;3.75;2.97;;;;;;;22.43;41.57;101383.63;5003649;28;20400;-79
2022/06/01 07:47:50;;;;;;;3.35;2.70;;;;;;;22.42;41.99;101371.34;5000987;28;20038;-79
2022/06/01 07:50:16;;;;;;;3.30;2.88;;;;;;;22.42;42.04;101372.19;5004669;28;20041;-80
2022/06/01 07:52:41;;;;;;;3.95;2.88;;;;;;;22.37;41.93;101353.34;5005849;28;20756;-81
2022/06/01 07:55:09;;;;;;;2.83;2.38;;;;;;;22.43;41.71;101365.88;5001450;28;20553;-80
2022/06/01 07:57:35;;;;;;;3.40;2.90;;;;;;;22.49;42.08;101389.03;4991770;28;20052;-80
2022/06/01 08:00:01;;;;;;;2.80;2.38;;;;;;;22.48;42.00;101391.88;5007024;28;20054;-80
2022/06/01 08:02:26;;;;;;;2.80;2.60;;;;;;;22.52;41.58;101398.44;5003857;28;20440;-80
2022/06/01 08:04:52;;;;;;;2.78;2.58;;;;;;;22.41;41.82;101375.03;4999304;28;20045;-80
2022/06/01 08:07:17;;;;;;;2.83;2.60;;;;;;;22.40;41.98;101384.81;4985014;28;20042;-80
2022/06/01 08:09:43;;;;;;;2.80;2.55;;;;;;;22.49;41.86;101396.16;5003838;28;20022;-80
2022/06/01 08:14:52;;;;;;;2.83;2.55;;;;;;;22.36;41.70;101375.56;4999825;28;20056;-81
2022/06/01 08:17:18;;;;;;;2.88;2.63;;;;;;;22.54;41.88;101401.75;4998271;28;20396;-80
2022/06/01 08:19:46;;;;;;;3.55;2.70;;;;;;;22.39;41.63;101382.34;5004254;28;20038;-80
2022/06/01 08:22:12;;;;;;;2.88;2.50;;;;;;;22.61;41.58;101398.16;4927131;28;21949;-79
2022/06/01 08:24:37;;;;;;;3.28;2.97;;;;;;;22.99;40.99;101407.88;4987633;28;20508;-79
2022/06/01 08:27:03;;;;;;;2.80;2.50;;;;;;;23.20;40.45;101381.34;4991447;28;20050;-78
2022/06/01 08:29:29;;;;;;;3.25;2.17;;;;;;;23.40;40.35;101389.50;4966032;28;20033;-79
2022/06/01 08:31:54;;;;;;;3.58;2.50;;;;;;;23.71;39.81;101411.31;4985509;28;20034;-82
2022/06/01 08:34:20;;;;;;;5.50;2.80;;;;;;;23.92;39.65;101409.63;4976444;28;20041;-79
2022/06/01 08:36:47;;;;;;;3.08;2.58;;;;;;;23.96;39.52;101398.41;4997355;28;20042;-78
2022/06/01 08:39:12;;;;;;;2.88;2.67;;;;;;;23.81;39.12;101347.13;4959009;28;20052;-82
2022/06/01 08:41:39;;;;;;;4.63;2.90;;;;;;;24.05;39.42;101391.06;5004657;28;20038;-85
2022/06/01 08:44:19;;;;;;;2.83;2.42;;;;;;;24.09;39.70;101403.00;4959048;28;20042;-84
2022/06/01 08:46:45;;;;;;;4.63;3.42;;;;;;;24.13;39.09;101401.59;4999884;28;20038;-86
2022/06/01 08:49:22;;;;;;;9.02;6.43;;;;;;;24.08;38.45;101407.50;4975383;28;20119;-83
2022/06/01 08:51:47;;;;;;;5.25;4.20;;;;;;;24.06;38.62;101420.19;5004109;28;20096;-84
2022/06/01 08:54:13;;;;;;;5.05;3.45;;;;;;;24.05;38.76;101415.84;4970440;28;20045;-83
2022/06/01 08:56:45;;;;;;;4.75;3.20;;;;;;;24.00;38.79;101412.13;4988807;28;20042;-84
2022/06/01 08:59:32;;;;;;;5.82;3.42;;;;;;;24.03;38.73;101414.41;4992943;28;20133;-84
2022/06/01 09:02:16;;;;;;;6.60;3.38;;;;;;;24.07;38.67;101418.34;4969545;28;20046;-83
2022/06/01 09:04:45;;;;;;;4.05;2.63;;;;;;;24.10;38.48;101415.28;5003262;28;20041;-84
2022/06/01 09:07:29;;;;;;;3.00;2.65;;;;;;;24.12;38.68;101418.56;4971697;28;21172;-83
2022/06/01 09:09:57;;;;;;;3.92;2.95;;;;;;;24.10;38.53;101423.25;5001405;28;20057;-83
2022/06/01 09:12:24;;;;;;;3.25;2.83;;;;;;;24.01;38.50;101432.41;4959310;28;20034;-83
2022/06/01 09:14:54;;;;;;;6.25;2.70;;;;;;;24.10;38.52;101425.94;4987600;28;20050;-83
2022/06/01 09:17:19;;;;;;;;;;;;;;;24.04;38.71;101432.81;4973915;28;20053;-84
2022/06/01 09:22:38;;;;;;;4.05;2.60;;;;;;;24.09;38.62;101437.59;4974093;28;20034;-83
2022/06/01 09:25:19;;;;;;;3.85;2.67;;;;;;;23.97;38.54;101423.97;5007679;28;20399;-84
2022/06/01 09:27:49;;;;;;;3.83;2.70;;;;;;;24.14;38.59;101434.34;4961679;28;20389;-83
2022/06/01 09:30:25;;;;;;;3.30;2.45;;;;;;;24.05;38.75;101431.81;4980774;28;20044;-83
2022/06/01 09:33:03;;;;;;;3.03;2.60;;;;;;;24.11;38.61;101428.41;4974650;28;20044;-83
2022/06/01 09:35:33;;;;;;;3.35;2.70;;;;;;;23.96;38.70;101405.56;4999921;28;20061;-84
2022/06/01 09:38:03;;;;;;;2.97;2.30;;;;;;;24.02;38.55;101416.22;4971503;28;20759;-84
2022/06/01 09:40:33;;;;;;;3.50;2.42;;;;;;;24.08;38.69;101430.63;5003505;28;20091;-83
2022/06/01 09:43:00;;;;;;;2.95;2.38;;;;;;;24.06;38.84;101419.34;4973453;28;20047;-83
2022/06/01 09:45:53;;;;;;;3.45;2.47;;;;;;;24.04;38.86;101432.00;4985481;28;20041;-84
2022/06/01 09:48:35;;;;;;;4.63;2.60;;;;;;;23.99;38.80;101423.78;4999250;28;20029;-83
2022/06/01 09:51:22;;;;;;;5.90;2.45;;;;;;;23.98;38.74;101425.63;4975211;28;20037;-84
2022/06/01 09:53:51;;;;;;;2.47;2.28;;;;;;;24.02;38.95;101415.41;5000031;28;20401;-84
2022/06/01 09:56:44;;;;;;;4.53;2.88;;;;;;;23.94;39.02;101419.06;4976584;28;20053;-83
2022/06/01 10:08:08;;;;;;;3.65;2.50;;;;;;;23.86;39.28;101426.34;4967206;28;20056;-83
2022/06/01 10:10:35;;;;;;;3.22;2.30;;;;;;;23.69;38.84;101410.63;5001844;28;20030;-84
2022/06/01 10:13:01;;;;;;;3.38;2.28;;;;;;;23.74;39.40;101429.53;4973952;28;20385;-84
2022/06/01 10:15:36;;;;;;;3.08;2.50;;;;;;;23.71;39.54;101421.94;4993511;28;20680;-84
2022/06/01 10:18:11;;;;;;;5.20;2.50;;;;;;;23.69;39.55;101425.78;4955692;28;20128;-84
2022/06/01 10:20:47;;;;;;;3.15;2.67;;;;;;;23.66;39.69;101429.63;4997317;28;20096;-84
2022/06/01 10:23:47;;;;;;;2.22;2.03;;;;;;;23.48;39.67;101413.28;4972054;28;20045;-83
2022/06/01 10:26:21;;;;;;;3.05;2.10;;;;;;;23.58;39.83;101448.38;5000709;28;20052;-84
2022/06/01 10:28:55;;;;;;;2.88;2.20;;;;;;;23.54;40.07;101452.41;4976416;28;20640;-84
2022/06/01 10:31:32;;;;;;;2.92;2.40;;;;;;;23.32;40.29;101411.69;4980629;28;20045;-84
2022/06/01 10:34:17;;;;;;;2.97;2.55;;;;;;;23.43;40.38;101424.50;4960704;28;20033;-84
2022/06/01 10:37:01;;;;;;;3.38;2.25;;;;;;;23.36;40.48;101423.59;5001212;28;20046;-83
2022/06/01 10:39:35;;;;;;;3.22;2.35;;;;;;;23.39;40.46;101433.84;4969229;28;20083;-81
2022/06/01 10:42:19;;;;;;;2.97;2.20;;;;;;;23.25;40.60;101412.63;5004780;28;20065;-84
2022/06/01 10:45:04;;;;;;;2.53;2.30;;;;;;;23.42;40.51;101441.44;4961810;28;20050;-83
2022/06/01 10:47:46;;;;;;;2.88;2.30;;;;;;;23.48;40.67;101435.38;4993019;28;20026;-84
2022/06/01 10:50:18;;;;;;;2.53;2.33;;;;;;;23.49;40.61;101425.56;4971120;28;20045;-85
2022/06/01 10:52:49;;;;;;;5.53;2.72;;;;;;;23.46;40.28;101404.69;5007817;28;20081;-83
2022/06/01 10:55:20;;;;;;;3.00;2.53;;;;;;;23.60;40.25;101425.09;4975664;28;20107;-83
2022/06/01 10:57:48;;;;;;;3.33;2.30;;;;;;;23.58;40.33;101420.97;4981367;28;20042;-84
2022/06/01 11:00:22;;;;;;;2.58;2.00;;;;;;;23.38;40.50;101384.38;4963283;28;20503;-86
2022/06/01 11:03:13;;;;;;;2.60;2.40;;;;;;;23.60;40.16;101416.28;4993189;28;20485;-83
2022/06/01 11:05:56;;;;;;;2.40;2.08;;;;;;;23.68;40.03;101414.31;4942765;28;20038;-83
2022/06/01 11:08:28;;;;;;;3.33;2.22;;;;;;;23.72;40.16;101417.44;4998619;28;20563;-81
2022/06/01 11:11:29;;;;;;;2.58;2.28;;;;;;;23.71;40.14;101423.78;4953136;28;20036;-83
2022/06/01 11:13:55;;;;;;;2.40;2.20;;;;;;;23.66;40.15;101434.97;4963074;28;20106;-82
2022/06/01 11:16:38;;;;;;;4.25;2.40;;;;;;;23.61;40.41;101423.25;4958824;28;20048;-82
2022/06/01 11:19:10;;;;;;;3.58;2.20;;;;;;;23.71;40.11;101437.06;4999267;28;20037;-83
2022/06/01 11:21:47;;;;;;;2.38;2.10;;;;;;;23.66;40.07;101444.78;4957789;28;20050;-83
2022/06/01 11:24:41;;;;;;;2.88;2.20;;;;;;;23.66;40.24;101450.91;4996426;28;20034;-82
2022/06/01 11:27:37;;;;;;;2.30;2.10;;;;;;;23.70;40.12;101457.53;4953377;28;20042;-82
2022/06/01 11:30:14;;;;;;;2.65;2.35;;;;;;;23.70;40.18;101468.16;5000877;28;21948;-82
2022/06/01 11:33:01;;;;;;;4.65;2.50;;;;;;;23.68;40.07;101466.69;4933583;28;20041;-81
2022/06/01 11:35:37;;;;;;;3.22;2.30;;;;;;;23.55;40.04;101455.91;4996553;28;20077;-82
2022/06/01 11:38:21;;;;;;;2.30;2.10;;;;;;;23.71;40.01;101480.44;4958907;28;20095;-81
2022/06/01 11:41:03;;;;;;;2.67;2.22;;;;;;;23.72;39.95;101491.91;5003832;28;20148;-84
2022/06/01 11:43:38;;;;;;;2.30;2.10;;;;;;;23.15;40.03;101405.78;4958603;28;20031;-87
2022/06/01 11:46:23;;;;;;;2.63;2.13;;;;;;;23.70;40.08;101493.91;5007422;28;20046;-88
2022/06/01 11:48:55;;;;;;;2.38;2.17;;;;;;;23.39;40.03;101449.81;4965172;28;20095;-84
2022/06/01 11:51:36;;;;;;;3.47;1.80;;;;;;;23.67;40.35;101491.63;5003925;28;20034;-88
2022/06/01 11:54:30;;;;;;;2.33;2.13;;;;;;;23.62;40.30;101473.56;4991383;28;20092;-87
2022/06/01 11:57:18;;;;;;;2.20;2.00;;;;;;;23.59;40.24;101476.63;5012185;28;20541;-87
2022/06/01 11:59:51;;;;;;;2.10;2.00;;;;;;;23.62;40.34;101470.09;4997151;28;20280;-87
2022/06/01 12:02:41;;;;;;;2.40;2.20;;;;;;;23.65;40.23;101477.69;5008086;28;20037;-87
2022/06/01 12:05:30;;;;;;;2.53;2.22;;;;;;;23.62;40.44;101486.88;4990066;28;20057;-87
2022/06/01 12:08:23;;;;;;;2.75;2.42;;;;;;;23.54;40.37;101472.88;5008461;28;20331;-87
2022/06/01 12:10:55;;;;;;;2.35;2.10;;;;;;;23.65;40.44;101488.31;4945401;28;20033;-87